Time;durP1;ratioP1;P1;durP2;ratioP2;P2;SDS_P1;SDS_P2;PMS_P1;PMS_P2;Temp;Humidity;BMP_temperature;BMP_pressure;BME280_temperature;BME280_humidity;BME280_pressure;Samples;Min_cycle;Max_cycle;Signal;HPM_P1;HPM_P2
2022/11/11 00:00:12;;;;;;;33.92;16.15;;;;;;;9.74;100.00;100002.25;5151291;27;20091;-49
2022/11/11 00:02:38;;;;;;;34.67;15.05;;;;;;;9.83;100.00;100009.22;5151376;27;20055;-50
2022/11/11 00:05:05;;;;;;;37.25;15.68;;;;;;;9.74;100.00;100008.53;5151517;27;20448;-49
2022/11/11 00:07:31;;;;;;;33.72;15.55;;;;;;;9.70;100.00;100004.88;5151099;27;20054;-50
2022/11/11 00:09:58;;;;;;;33.47;14.60;;;;;;;9.83;100.00;100009.22;5151223;27;20051;-47
2022/11/11 00:12:25;;;;;;;30.63;13.73;;;;;;;9.91;100.00;99999.31;5151416;27;20061;-48
2022/11/11 00:14:51;;;;;;;39.33;15.35;;;;;;;9.70;100.00;100001.31;5151057;27;20065;-47
2022/11/11 00:25:30;;;;;;;36.00;15.48;;;;;;;9.60;100.00;99999.81;5151130;27;19930;-47
2022/11/11 00:27:57;;;;;;;30.40;14.50;;;;;;;9.58;100.00;99975.50;5151099;27;20050;-51
2022/11/11 00:30:23;;;;;;;31.10;13.57;;;;;;;9.39;100.00;99964.25;5151311;27;20043;-47
2022/11/11 00:32:49;;;;;;;34.53;13.10;;;;;;;9.53;100.00;99958.47;5150980;27;20050;-48
2022/11/11 00:38:07;;;;;;;36.30;13.77;;;;;;;9.57;100.00;99962.16;5151023;27;20137;-47
2022/11/11 00:40:33;;;;;;;33.85;14.50;;;;;;;9.67;100.00;99959.00;5151036;27;20046;-49
2022/11/11 00:43:00;;;;;;;28.25;13.77;;;;;;;9.52;100.00;99976.84;5150824;27;20046;-48
2022/11/11 00:45:26;;;;;;;31.20;14.90;;;;;;;9.71;100.00;99976.34;5150782;27;20055;-47
2022/11/11 00:50:58;;;;;;;;;;;;;;;9.88;100.00;99998.03;5155238;27;20613;-47
2022/11/11 00:53:25;;;;;;;30.67;14.15;;;;;;;9.89;100.00;100004.31;5154497;27;19922;-46
2022/11/11 00:55:52;;;;;;;32.72;14.40;;;;;;;9.80;100.00;100001.69;5154648;27;20147;-47
2022/11/11 00:58:19;;;;;;;31.25;14.68;;;;;;;9.93;100.00;100008.00;5154304;27;20449;-47
2022/11/11 01:00:48;;;;;;;24.55;13.05;;;;;;;9.96;100.00;100025.66;5154156;27;20051;-46
2022/11/11 01:03:15;;;;;;;31.95;14.32;;;;;;;9.57;100.00;100016.91;5154208;27;20472;-47
2022/11/11 01:05:41;;;;;;;29.15;13.35;;;;;;;9.83;100.00;100002.94;5154339;27;20480;-48
2022/11/11 01:08:08;;;;;;;28.38;13.70;;;;;;;9.96;100.00;100017.44;5154343;27;20478;-48
2022/11/11 01:10:38;;;;;;;28.20;13.10;;;;;;;9.96;100.00;100029.19;5154409;27;20053;-50
2022/11/11 01:13:12;;;;;;;31.73;14.35;;;;;;;10.04;100.00;100038.47;5153710;27;20145;-51
2022/11/11 01:15:39;;;;;;;30.13;13.57;;;;;;;9.98;100.00;100043.38;5153962;27;20053;-50
2022/11/11 01:18:06;;;;;;;28.20;14.05;;;;;;;9.54;100.00;100026.59;5153769;27;20061;-52
2022/11/11 01:20:33;;;;;;;34.30;13.77;;;;;;;9.85;100.00;100009.66;5153878;27;20051;-50
2022/11/11 01:22:59;;;;;;;25.65;12.98;;;;;;;9.97;100.00;100027.28;5153708;27;20137;-51
2022/11/11 01:25:26;;;;;;;25.35;13.00;;;;;;;9.98;100.00;100034.34;5153712;27;20043;-48
2022/11/11 01:27:52;;;;;;;27.92;13.18;;;;;;;9.84;100.00;100062.84;5153493;27;20099;-50
2022/11/11 01:30:18;;;;;;;23.98;12.43;;;;;;;9.82;100.00;100058.84;5153648;27;20043;-48
2022/11/11 01:32:45;;;;;;;32.35;14.95;;;;;;;9.82;100.00;100054.16;5153720;27;20137;-47
2022/11/11 01:35:11;;;;;;;34.63;14.90;;;;;;;9.73;100.00;100061.69;5153554;27;20061;-50
2022/11/11 01:37:38;;;;;;;31.77;14.15;;;;;;;9.74;100.00;100048.78;5153581;27;20047;-50
2022/11/11 01:40:05;;;;;;;22.48;11.63;;;;;;;9.68;100.00;100028.25;5153454;27;20179;-50
2022/11/11 01:42:31;;;;;;;25.08;12.48;;;;;;;9.81;100.00;99991.53;5153687;27;20504;-50
2022/11/11 01:44:57;;;;;;;24.75;12.35;;;;;;;9.87;100.00;100018.38;5153537;27;20420;-49
2022/11/11 01:49:17;;;;;;;29.27;12.60;;;;;;;9.83;100.00;100022.09;5153458;27;20133;-47
2022/11/11 01:50:11;;;;;;;26.13;11.63;;;;;;;9.69;100.00;99988.75;5153153;27;20061;-48
2022/11/11 01:52:44;;;;;;;25.58;11.68;;;;;;;9.57;100.00;100009.50;5153209;27;20496;-47
2022/11/11 01:55:14;;;;;;;23.42;11.50;;;;;;;9.82;100.00;99993.13;5153223;27;20438;-46
2022/11/11 01:57:47;;;;;;;26.75;12.07;;;;;;;9.86;100.00;100000.34;5153429;27;20054;-48
2022/11/11 02:00:17;;;;;;;22.60;11.05;;;;;;;9.93;100.00;99999.78;5152295;27;20047;-47
2022/11/11 02:02:46;;;;;;;20.50;10.90;;;;;;;10.00;100.00;100021.94;5153368;27;20475;-48
2022/11/11 02:08:04;;;;;;;22.45;11.38;;;;;;;9.92;100.00;100017.34;5153069;27;20049;-46
2022/11/11 02:10:33;;;;;;;30.10;10.98;;;;;;;9.82;100.00;100017.78;5153345;27;20163;-49
2022/11/11 02:15:44;;;;;;;22.92;10.20;;;;;;;9.88;100.00;100049.28;5153010;27;20098;-46
2022/11/11 02:18:11;;;;;;;20.35;9.70;;;;;;;9.79;100.00;100048.56;5153013;27;20137;-48
2022/11/11 02:20:42;;;;;;;24.75;10.35;;;;;;;9.98;100.00;100037.09;5153135;27;20131;-47
2022/11/11 02:23:14;;;;;;;22.50;10.20;;;;;;;9.52;100.00;100028.84;5153183;27;20133;-48
2022/11/11 02:25:45;;;;;;;17.80;9.65;;;;;;;9.95;100.00;100013.91;5152840;27;20134;-49
2022/11/11 02:28:14;;;;;;;21.73;9.50;;;;;;;9.99;100.00;100031.25;5153121;27;20091;-49
2022/11/11 02:30:40;;;;;;;19.10;9.65;;;;;;;10.00;100.00;100037.56;5152748;27;20050;-50
2022/11/11 02:33:06;;;;;;;16.85;9.00;;;;;;;9.99;100.00;100035.94;5153022;27;20057;-49
2022/11/11 02:35:35;;;;;;;17.58;8.93;;;;;;;9.85;100.00;100026.09;5152841;27;20087;-53
2022/11/11 02:38:07;;;;;;;14.07;7.50;;;;;;;9.90;100.00;100028.63;5152706;27;20067;-53
2022/11/11 02:40:37;;;;;;;22.60;8.55;;;;;;;9.80;100.00;100009.09;5152667;27;20095;-51
2022/11/11 02:43:05;;;;;;;13.88;7.30;;;;;;;9.94;100.00;100008.78;5152486;27;20501;-47
2022/11/11 02:45:31;;;;;;;13.50;7.05;;;;;;;9.86;100.00;99999.50;5152685;27;20525;-51
2022/11/11 02:47:57;;;;;;;18.13;7.57;;;;;;;9.83;100.00;100000.19;5152527;27;20089;-49
2022/11/11 02:50:24;;;;;;;14.55;7.47;;;;;;;9.81;100.00;100002.50;5152739;27;20540;-51
2022/11/11 02:52:50;;;;;;;22.35;7.70;;;;;;;9.86;100.00;99997.59;5152329;27;20089;-51
2022/11/11 02:55:16;;;;;;;13.38;6.75;;;;;;;9.80;100.00;99996.22;5152818;27;20492;-48
2022/11/11 02:57:43;;;;;;;11.23;6.85;;;;;;;9.75;100.00;100003.84;5152161;27;20086;-48
2022/11/11 03:00:11;;;;;;;14.13;7.72;;;;;;;9.74;100.00;100003.03;5152576;27;20514;-47
2022/11/11 03:02:38;;;;;;;13.30;8.02;;;;;;;9.65;100.00;99994.13;5152365;27;20400;-48
2022/11/11 03:05:05;;;;;;;14.48;7.57;;;;;;;9.56;100.00;99993.41;5152260;27;20134;-47
2022/11/11 03:07:31;;;;;;;15.02;7.25;;;;;;;9.60;100.00;99978.72;5152429;27;20050;-48
2022/11/11 03:09:57;;;;;;;15.27;8.13;;;;;;;9.63;100.00;99979.97;5151917;27;20078;-48
2022/11/11 03:12:23;;;;;;;15.75;7.35;;;;;;;9.63;100.00;99978.03;5152411;27;20508;-47
2022/11/11 03:14:49;;;;;;;17.73;7.95;;;;;;;9.45;100.00;99994.97;5152464;27;20096;-47
2022/11/11 03:22:41;;;;;;;25.52;9.43;;;;;;;9.70;100.00;100004.88;5117591;27;20116;-48
2022/11/11 03:27:53;;;;;;;16.25;7.00;;;;;;;9.75;100.00;99990.94;5151900;27;20095;-49
2022/11/11 03:30:19;;;;;;;10.32;6.32;;;;;;;9.62;100.00;100013.94;5151895;27;20047;-47
2022/11/11 03:32:46;;;;;;;14.85;6.35;;;;;;;9.55;100.00;100016.44;5151615;27;20557;-49
2022/11/11 03:35:12;;;;;;;14.52;6.22;;;;;;;9.81;100.00;100016.97;5151987;27;20457;-48
2022/11/11 03:40:22;;;;;;;10.73;6.35;;;;;;;9.69;100.00;100035.31;5152225;27;20159;-48
2022/11/11 03:42:49;;;;;;;12.15;6.35;;;;;;;9.76;100.00;100052.78;5151810;27;20098;-47
2022/11/11 03:45:15;;;;;;;13.65;6.90;;;;;;;9.54;100.00;100064.91;5151655;27;20144;-47
2022/11/11 03:47:41;;;;;;;12.50;6.45;;;;;;;9.71;100.00;100035.78;5151717;27;20138;-48
2022/11/11 03:50:09;;;;;;;12.55;6.05;;;;;;;9.51;100.00;100051.09;5151418;27;20094;-48
2022/11/11 03:52:40;;;;;;;11.48;5.53;;;;;;;9.63;100.00;100048.41;5151646;27;20046;-49
2022/11/11 03:55:07;;;;;;;11.00;5.47;;;;;;;9.66;100.00;100056.75;5151329;27;20056;-48
2022/11/11 03:57:34;;;;;;;10.88;6.07;;;;;;;9.67;100.00;100046.59;5151484;27;20061;-49
2022/11/11 04:00:00;;;;;;;9.55;5.30;;;;;;;9.76;100.00;100041.03;5151407;27;20057;-48
2022/11/11 04:10:40;;;;;;;15.07;5.93;;;;;;;9.81;100.00;100063.53;5151364;27;20054;-49
2022/11/11 04:16:06;;;;;;;13.68;5.38;;;;;;;9.61;100.00;100073.38;5151553;27;20046;-47
2022/11/11 04:24:02;;;;;;;6.60;4.63;;;;;;;9.78;100.00;100080.63;5154647;27;20300;-52
2022/11/11 04:26:28;;;;;;;8.15;4.22;;;;;;;9.86;100.00;100098.94;5154830;27;20042;-50
2022/11/11 04:32:34;;;;;;;;;;;;;;;9.77;100.00;100131.06;5155087;27;20050;-47
2022/11/11 04:34:25;;;;;;;16.08;5.15;;;;;;;9.76;100.00;100134.13;5154568;27;19968;-48
2022/11/11 04:36:52;;;;;;;8.68;4.20;;;;;;;9.81;100.00;100129.25;5154490;27;20096;-49
2022/11/11 04:42:03;;;;;;;9.00;4.47;;;;;;;9.80;100.00;100126.88;5154660;27;20045;-49
2022/11/11 04:47:13;;;;;;;14.77;5.15;;;;;;;9.95;100.00;100152.81;5155074;27;20500;-50
2022/11/11 04:49:39;;;;;;;8.60;4.03;;;;;;;9.94;100.00;100160.25;5154285;27;20613;-49
2022/11/11 04:52:27;;;;;;;17.08;5.97;;;;;;;9.93;100.00;100153.16;5154694;27;20055;-49
2022/11/11 04:57:40;;;;;;;12.00;4.05;;;;;;;9.83;100.00;100170.81;5154087;27;20095;-47
2022/11/11 05:00:08;;;;;;;10.98;4.38;;;;;;;9.78;100.00;100176.47;5154074;27;20051;-49
2022/11/11 05:05:19;;;;;;;9.75;3.95;;;;;;;9.77;100.00;100138.50;5154077;27;20045;-48
2022/11/11 05:10:30;;;;;;;8.25;4.03;;;;;;;9.92;100.00;100164.44;5154375;27;20111;-57
2022/11/11 05:21:19;;;;;;;6.55;3.83;;;;;;;9.75;100.00;100173.59;5153692;27;20050;-57
2022/11/11 05:21:20;;;;;;;7.32;3.20;;;;;;;9.99;100.00;100217.53;5153826;27;20092;-56
2022/11/11 05:26:31;;;;;;;9.05;3.30;;;;;;;9.95;100.00;100233.06;5153776;27;20074;-54
2022/11/11 05:28:58;;;;;;;11.40;3.50;;;;;;;9.94;100.00;100245.16;5153383;27;20141;-57
2022/11/11 05:31:24;;;;;;;10.73;3.50;;;;;;;10.01;100.00;100239.13;5153633;27;20129;-53
2022/11/11 05:33:51;;;;;;;11.05;5.07;;;;;;;9.95;100.00;100240.47;5152129;27;20184;-56
2022/11/11 05:36:17;;;;;;;6.63;3.35;;;;;;;9.84;100.00;100257.31;5153825;27;20043;-52
2022/11/11 05:38:43;;;;;;;6.55;3.50;;;;;;;9.92;100.00;100252.09;5153559;27;20417;-53
2022/11/11 05:41:11;;;;;;;9.73;3.38;;;;;;;9.98;100.00;100265.25;5153818;27;20054;-54
2022/11/11 05:43:37;;;;;;;8.35;2.92;;;;;;;10.03;100.00;100267.81;5153392;27;20047;-53
2022/11/11 05:46:04;;;;;;;9.48;3.47;;;;;;;9.98;100.00;100276.22;5153518;27;20412;-52
2022/11/11 05:48:31;;;;;;;12.52;3.85;;;;;;;9.90;100.00;100280.63;5153197;27;20051;-54
2022/11/11 05:50:57;;;;;;;10.35;3.53;;;;;;;9.92;100.00;100293.97;5153488;27;20493;-57
2022/11/11 05:53:24;;;;;;;6.75;2.90;;;;;;;9.93;100.00;100320.25;5153179;27;20046;-54
2022/11/11 05:55:50;;;;;;;16.10;3.90;;;;;;;9.91;100.00;100328.00;5153385;27;20078;-56
2022/11/11 05:58:17;;;;;;;14.23;3.72;;;;;;;9.96;100.00;100321.50;5153410;27;20053;-56
2022/11/11 06:00:44;;;;;;;12.13;4.13;;;;;;;9.95;100.00;100331.66;5153282;27;20089;-53
2022/11/11 06:03:10;;;;;;;13.68;4.18;;;;;;;9.96;100.00;100329.72;5153506;27;20502;-58
2022/11/11 06:05:36;;;;;;;8.43;3.17;;;;;;;9.89;100.00;100336.53;5153189;27;20540;-57
2022/11/11 06:08:04;;;;;;;7.38;3.42;;;;;;;9.92;100.00;100342.50;5153221;27;20102;-54
2022/11/11 06:10:30;;;;;;;13.57;3.33;;;;;;;10.39;100.00;100345.09;5153009;27;20137;-55
2022/11/11 06:13:04;;;;;;;11.13;3.30;;;;;;;10.38;100.00;100370.91;5153145;27;20382;-55
2022/11/11 06:15:32;;;;;;;9.57;2.88;;;;;;;10.27;100.00;100379.53;5152640;27;20068;-56
2022/11/11 06:17:58;;;;;;;12.05;2.83;;;;;;;10.02;100.00;100405.91;5152946;27;20050;-56
2022/11/11 06:20:25;;;;;;;11.23;3.20;;;;;;;10.04;100.00;100400.91;5152771;27;20051;-52
2022/11/11 06:22:57;;;;;;;15.32;3.90;;;;;;;10.02;100.00;100403.16;5152765;27;20058;-54
2022/11/11 06:28:09;;;;;;;13.68;3.03;;;;;;;10.02;100.00;100403.16;5152495;27;20077;-55
2022/11/11 06:30:36;;;;;;;11.90;3.90;;;;;;;9.76;100.00;100419.72;5152560;27;20086;-51
2022/11/11 06:33:02;;;;;;;13.30;3.67;;;;;;;10.07;100.00;100405.72;5152419;27;20138;-53
2022/11/11 06:35:28;;;;;;;20.40;3.40;;;;;;;10.21;100.00;100405.50;5152757;27;20627;-54
2022/11/11 06:37:55;;;;;;;11.82;2.92;;;;;;;10.05;100.00;100442.81;5152316;27;20042;-55
2022/11/11 06:40:23;;;;;;;12.50;3.28;;;;;;;10.19;100.00;100446.13;5152637;27;20150;-53
2022/11/11 06:42:49;;;;;;;10.00;4.57;;;;;;;10.16;100.00;100457.72;5152411;27;20050;-51
2022/11/11 06:45:16;;;;;;;24.10;4.97;;;;;;;10.24;100.00;100456.91;5151662;27;20047;-55
2022/11/11 06:47:43;;;;;;;13.15;3.80;;;;;;;10.26;100.00;100462.06;5152401;27;20394;-52
2022/11/11 06:50:09;;;;;;;14.63;3.17;;;;;;;10.25;100.00;100469.47;5151986;27;20047;-52
2022/11/11 06:52:36;;;;;;;12.70;2.75;;;;;;;10.12;100.00;100475.97;5152540;27;20098;-51
2022/11/11 06:55:02;;;;;;;14.75;3.40;;;;;;;10.22;100.00;100475.59;5152075;27;20050;-56
2022/11/11 06:57:28;;;;;;;21.70;7.13;;;;;;;10.16;100.00;100473.38;5152370;27;20129;-52
2022/11/11 06:59:54;;;;;;;13.25;4.55;;;;;;;10.26;100.00;100465.63;5152091;27;20168;-54
2022/11/11 07:02:21;;;;;;;8.93;3.55;;;;;;;10.27;100.00;100469.97;5152239;27;20133;-53
2022/11/11 07:04:48;;;;;;;27.10;3.88;;;;;;;10.20;100.00;100469.66;5152218;27;20130;-52
2022/11/11 07:07:16;;;;;;;11.93;3.33;;;;;;;10.25;100.00;100476.88;5152300;27;20058;-54
2022/11/11 07:09:42;;;;;;;14.15;3.72;;;;;;;10.30;100.00;100477.53;5152195;27;20519;-53
2022/11/11 07:12:09;;;;;;;13.65;4.05;;;;;;;10.24;100.00;100467.88;5152138;27;20051;-55
2022/11/11 07:14:35;;;;;;;15.70;3.05;;;;;;;10.40;100.00;100459.91;5151911;27;20043;-53
2022/11/11 07:17:01;;;;;;;9.55;3.13;;;;;;;10.46;100.00;100465.97;5152150;27;20166;-55
2022/11/11 07:19:28;;;;;;;9.45;2.45;;;;;;;10.56;100.00;100469.16;5152255;27;20126;-53
2022/11/11 07:21:55;;;;;;;13.30;2.90;;;;;;;10.57;100.00;100475.44;5151615;27;20058;-52
2022/11/11 07:24:21;;;;;;;10.02;3.17;;;;;;;10.60;100.00;100477.53;5151891;27;20147;-52
2022/11/11 07:26:48;;;;;;;13.80;3.38;;;;;;;10.80;100.00;100473.19;5151922;27;20432;-53
2022/11/11 07:29:15;;;;;;;14.93;3.90;;;;;;;10.75;100.00;100484.34;5151493;27;20042;-51
2022/11/11 07:31:41;;;;;;;6.75;2.60;;;;;;;10.78;100.00;100475.44;5151795;27;20562;-53
2022/11/11 07:34:08;;;;;;;20.35;3.38;;;;;;;10.79;100.00;100472.38;5151839;27;20453;-54
2022/11/11 07:36:34;;;;;;;12.50;5.28;;;;;;;10.75;100.00;100467.88;5151511;27;20111;-54
2022/11/11 07:39:01;;;;;;;9.55;3.50;;;;;;;10.78;100.00;100459.78;5151829;27;20054;-51
2022/11/11 07:41:27;;;;;;;14.70;3.10;;;;;;;10.99;100.00;100457.03;5151516;27;20091;-55
2022/11/11 07:43:54;;;;;;;10.88;2.72;;;;;;;11.01;100.00;100441.03;5151523;27;20212;-52
2022/11/11 07:46:20;;;;;;;7.32;2.88;;;;;;;11.11;100.00;100436.28;5151345;27;20050;-51
2022/11/11 07:48:46;;;;;;;11.68;3.03;;;;;;;11.24;100.00;100435.19;5151155;27;20103;-52
2022/11/11 07:51:12;;;;;;;18.63;4.22;;;;;;;11.19;100.00;100447.16;5151294;27;20069;-55
2022/11/11 07:53:39;;;;;;;12.52;3.08;;;;;;;11.32;100.00;100435.09;5151047;27;20133;-53
2022/11/11 07:56:06;;;;;;;11.38;4.32;;;;;;;11.25;100.00;100401.09;5150856;27;20413;-51
2022/11/11 07:58:32;;;;;;;8.15;2.38;;;;;;;11.39;100.00;100390.59;5150175;27;20051;-54
2022/11/11 08:00:59;;;;;;;15.38;2.90;;;;;;;11.51;100.00;100371.41;5151232;27;20046;-51
2022/11/11 08:03:26;;;;;;;9.68;2.83;;;;;;;11.53;100.00;100355.41;5151102;27;20405;-56
2022/11/11 08:05:52;;;;;;;13.10;3.20;;;;;;;11.59;100.00;100303.78;5151199;27;20089;-54
2022/11/11 08:08:23;;;;;;;8.20;2.95;;;;;;;11.81;100.00;100279.75;5151103;27;20050;-55
2022/11/11 08:10:52;;;;;;;16.77;3.25;;;;;;;12.22;100.00;100202.44;5150955;27;20056;-52
2022/11/11 08:16:05;;;;;;;16.10;3.80;;;;;;;13.13;100.00;99848.47;5151159;27;20077;-55
2022/11/11 08:18:32;;;;;;;18.75;3.55;;;;;;;13.41;100.00;99683.75;5150832;27;20061;-55
2022/11/11 08:20:58;;;;;;;14.30;3.22;;;;;;;13.49;100.00;99538.66;5150730;27;20142;-54
2022/11/11 08:23:31;;;;;;;8.95;3.38;;;;;;;13.89;100.00;99446.19;5150998;27;20057;-54
2022/11/11 08:25:58;;;;;;;9.00;2.90;;;;;;;14.28;100.00;99263.72;5151246;27;20042;-55
2022/11/11 08:28:25;;;;;;;10.50;3.40;;;;;;;14.29;100.00;99143.97;5151150;27;20050;-55
2022/11/11 08:30:51;;;;;;;12.90;2.78;;;;;;;14.22;100.00;99117.16;5150894;27;20138;-55
2022/11/11 08:33:17;;;;;;;17.88;3.50;;;;;;;13.99;100.00;99149.78;5150655;27;20054;-52
2022/11/11 08:35:44;;;;;;;10.73;2.95;;;;;;;13.60;100.00;99261.38;5150821;27;20043;-55
2022/11/11 08:38:11;;;;;;;19.65;3.40;;;;;;;13.35;100.00;99285.97;5150598;27;20061;-52
2022/11/11 08:40:38;;;;;;;16.92;3.45;;;;;;;12.86;100.00;99291.75;5150797;27;20054;-54
2022/11/11 08:43:04;;;;;;;24.67;3.80;;;;;;;12.61;100.00;99415.25;5150573;27;20133;-54
2022/11/11 08:45:31;;;;;;;10.20;3.65;;;;;;;12.54;100.00;99487.44;5150892;27;20054;-55
2022/11/11 08:47:57;;;;;;;11.98;2.72;;;;;;;12.59;100.00;99535.81;5150636;27;20055;-50
2022/11/11 08:50:24;;;;;;;18.38;3.47;;;;;;;12.67;100.00;99606.31;5150387;27;20092;-55
2022/11/11 08:52:51;;;;;;;9.88;3.00;;;;;;;12.53;100.00;99617.06;5150447;27;20138;-52
2022/11/11 08:55:18;;;;;;;9.18;3.35;;;;;;;12.46;100.00;99636.97;5150926;27;20115;-55
2022/11/11 08:57:45;;;;;;;9.35;2.70;;;;;;;12.58;100.00;99647.81;5150442;27;20051;-53
2022/11/11 09:00:12;;;;;;;10.40;2.60;;;;;;;12.22;100.00;99605.91;5150785;27;20157;-54
2022/11/11 09:02:39;;;;;;;11.73;3.53;;;;;;;12.25;100.00;99629.94;5150654;27;20098;-54
2022/11/11 09:05:06;;;;;;;8.68;3.05;;;;;;;12.07;100.00;99641.75;5150243;27;20054;-56
2022/11/11 09:07:33;;;;;;;17.50;3.28;;;;;;;12.38;100.00;99731.50;5150503;27;20133;-54
2022/11/11 09:09:59;;;;;;;6.55;2.63;;;;;;;12.43;100.00;99681.72;5153170;27;20142;-51
2022/11/11 09:12:25;;;;;;;8.38;3.13;;;;;;;12.58;100.00;99686.31;5153907;27;20054;-57
2022/11/11 09:14:51;;;;;;;9.88;2.78;;;;;;;12.41;100.00;99626.28;5153715;27;20440;-57
2022/11/11 09:17:18;;;;;;;7.70;2.40;;;;;;;12.44;100.00;99578.81;5153777;27;20051;-54
2022/11/11 09:19:45;;;;;;;13.70;2.97;;;;;;;12.48;100.00;99572.19;5153701;27;20051;-56
2022/11/11 09:22:11;;;;;;;12.88;2.67;;;;;;;12.41;100.00;99543.81;5153550;27;20080;-56
2022/11/11 09:24:37;;;;;;;6.38;2.25;;;;;;;12.50;100.00;99489.34;5153763;27;20130;-52
2022/11/11 09:27:03;;;;;;;8.35;2.25;;;;;;;12.25;100.00;99538.41;5153900;27;20042;-54
2022/11/11 09:29:30;;;;;;;6.05;2.30;;;;;;;12.21;100.00;99626.31;5153552;27;20447;-54
2022/11/11 09:31:56;;;;;;;12.38;3.38;;;;;;;12.29;100.00;99532.97;5153731;27;20050;-50
2022/11/11 09:34:22;;;;;;;6.03;2.70;;;;;;;11.89;100.00;99512.28;5153613;27;20047;-55
2022/11/11 09:36:49;;;;;;;7.47;2.85;;;;;;;12.19;100.00;99532.44;5153567;27;20100;-53
2022/11/11 09:39:16;;;;;;;8.95;3.05;;;;;;;11.80;100.00;99490.53;5153525;27;20051;-54
2022/11/11 09:41:50;;;;;;;12.88;3.22;;;;;;;12.17;100.00;99509.25;5153351;27;20404;-55
2022/11/11 09:44:34;;;;;;;10.85;3.13;;;;;;;12.19;100.00;99523.38;5153376;27;20098;-52
2022/11/11 09:47:10;;;;;;;12.32;2.50;;;;;;;12.45;100.00;99594.94;5153214;27;20135;-53
2022/11/11 09:49:49;;;;;;;7.85;2.72;;;;;;;12.58;100.00;99476.50;5153152;27;20111;-51
2022/11/11 09:52:19;;;;;;;9.10;3.63;;;;;;;12.44;100.00;99482.56;5153101;27;20050;-54
2022/11/11 09:54:52;;;;;;;9.93;3.42;;;;;;;12.30;100.00;99513.38;5153263;27;20051;-51
2022/11/11 09:57:26;;;;;;;12.02;4.20;;;;;;;12.26;100.00;99507.00;5153393;27;20057;-51
2022/11/11 09:59:56;;;;;;;4.90;2.90;;;;;;;12.30;100.00;99535.38;5153131;27;20054;-51
2022/11/11 10:02:33;;;;;;;11.30;3.30;;;;;;;12.20;100.00;99523.03;5153290;27;20137;-53
2022/11/11 10:05:06;;;;;;;14.20;2.90;;;;;;;11.99;100.00;99583.09;5153240;27;20046;-51
2022/11/11 10:07:39;;;;;;;9.20;3.40;;;;;;;12.15;100.00;99616.00;5153006;27;20047;-52
2022/11/11 10:10:16;;;;;;;9.05;3.50;;;;;;;11.95;100.00;99645.44;5152790;27;20053;-53
2022/11/11 10:12:49;;;;;;;14.20;3.20;;;;;;;11.54;100.00;99713.63;5152831;27;20086;-54
2022/11/11 10:15:16;;;;;;;14.32;3.42;;;;;;;11.82;100.00;99770.34;5152661;27;20093;-50
2022/11/11 10:17:56;;;;;;;11.15;3.50;;;;;;;11.77;100.00;99752.19;5152983;27;20413;-55
2022/11/11 10:20:27;;;;;;;9.10;3.67;;;;;;;11.82;100.00;99757.38;5152133;27;20141;-51
2022/11/11 10:23:02;;;;;;;8.43;2.70;;;;;;;11.86;100.00;99708.03;5152743;27;20055;-52
2022/11/11 10:25:29;;;;;;;8.88;2.80;;;;;;;11.91;100.00;99732.50;5152954;27;20516;-54
2022/11/11 10:27:59;;;;;;;4.45;2.20;;;;;;;11.62;100.00;99671.41;5152467;27;20137;-51
2022/11/11 10:30:28;;;;;;;9.13;2.72;;;;;;;11.85;100.00;99688.03;5152391;27;20115;-56
2022/11/11 10:32:57;;;;;;;9.52;3.78;;;;;;;11.90;100.00;99585.31;5152481;27;20053;-52
2022/11/11 10:35:25;;;;;;;10.80;2.97;;;;;;;11.91;100.00;99614.38;5152279;27;20057;-51
2022/11/11 10:38:00;;;;;;;6.80;2.33;;;;;;;11.77;100.00;99615.63;5152271;27;20051;-51
2022/11/11 10:40:34;;;;;;;10.65;3.47;;;;;;;11.99;100.00;99607.84;5152343;27;20141;-50
2022/11/11 10:43:00;;;;;;;12.45;2.22;;;;;;;11.89;100.00;99532.28;5152254;27;20043;-50
2022/11/11 10:45:31;;;;;;;7.15;3.17;;;;;;;11.56;100.00;99560.25;5152366;27;20047;-51
2022/11/11 10:48:03;;;;;;;9.88;3.67;;;;;;;11.82;100.00;99580.78;5152150;27;20078;-52
2022/11/11 10:50:36;;;;;;;9.85;3.53;;;;;;;11.92;100.00;99497.81;5152018;27;20082;-50
2022/11/11 10:53:11;;;;;;;12.70;3.20;;;;;;;11.54;100.00;99537.88;5152219;27;20106;-49
2022/11/11 10:55:43;;;;;;;11.13;3.80;;;;;;;11.79;100.00;99612.53;5152274;27;20138;-55
2022/11/11 10:58:18;;;;;;;8.13;3.50;;;;;;;12.10;100.00;99514.63;5151955;27;20149;-51
2022/11/11 11:00:47;;;;;;;15.63;3.30;;;;;;;11.95;100.00;99500.63;5152180;27;20167;-53
2022/11/11 11:03:19;;;;;;;7.93;3.35;;;;;;;11.44;100.00;99574.16;5152049;27;20129;-54
2022/11/11 11:05:52;;;;;;;10.57;3.20;;;;;;;11.89;100.00;99583.69;5151893;27;20133;-53
2022/11/11 11:08:23;;;;;;;8.60;2.55;;;;;;;11.93;100.00;99571.63;5152019;27;20390;-55
2022/11/11 11:10:55;;;;;;;11.20;3.42;;;;;;;12.14;100.00;99537.47;5151964;27;20371;-56
2022/11/11 11:13:24;;;;;;;19.05;4.25;;;;;;;11.75;100.00;99538.28;5151795;27;20424;-55
2022/11/11 11:15:57;;;;;;;13.23;3.95;;;;;;;11.54;100.00;99625.75;5151637;27;20053;-54
2022/11/11 11:18:25;;;;;;;10.55;4.25;;;;;;;11.54;100.00;99681.47;5152073;27;20145;-54
2022/11/11 11:20:56;;;;;;;13.43;4.22;;;;;;;11.91;100.00;99648.13;5151914;27;20077;-57
2022/11/11 11:23:36;;;;;;;15.55;4.25;;;;;;;11.63;100.00;99645.56;5151887;27;20047;-54
2022/11/11 11:26:03;;;;;;;14.90;4.60;;;;;;;11.69;100.00;99715.50;5151536;27;20080;-53
2022/11/11 11:28:30;;;;;;;15.32;5.18;;;;;;;11.59;100.00;99754.50;5151666;27;20107;-55
2022/11/11 11:30:59;;;;;;;18.60;4.85;;;;;;;11.59;100.00;99864.38;5151225;27;20223;-51
2022/11/11 11:33:26;;;;;;;14.25;4.75;;;;;;;11.86;100.00;99878.38;5151411;27;20043;-56
2022/11/11 11:35:52;;;;;;;15.38;5.38;;;;;;;11.52;100.00;99864.19;5151433;27;20134;-56
2022/11/11 11:38:18;;;;;;;10.40;4.35;;;;;;;11.92;100.00;99890.69;5151521;27;20100;-54
2022/11/11 11:40:50;;;;;;;15.27;3.70;;;;;;;11.87;100.00;99860.75;5151643;27;20115;-54
2022/11/11 11:43:32;;;;;;;10.35;3.90;;;;;;;11.76;100.00;99894.25;5151530;27;20077;-55
2022/11/11 11:46:00;;;;;;;7.63;4.15;;;;;;;11.31;100.00;99917.41;5151656;27;20047;-54
2022/11/11 11:48:41;;;;;;;15.85;4.45;;;;;;;11.10;100.00;100001.09;5151050;27;20082;-50
2022/11/11 11:51:23;;;;;;;10.50;4.00;;;;;;;11.31;100.00;100122.47;5151256;27;20088;-52
2022/11/11 11:54:02;;;;;;;6.22;3.45;;;;;;;11.35;100.00;100073.97;5151146;27;20047;-51
2022/11/11 11:56:37;;;;;;;8.45;4.28;;;;;;;10.95;100.00;100148.81;5151264;27;20552;-49
2022/11/11 11:59:10;;;;;;;13.10;4.47;;;;;;;11.08;100.00;100201.75;5150946;27;20051;-49
2022/11/11 12:01:47;;;;;;;9.17;3.77;;;;;;;10.95;100.00;100181.72;5150990;27;20142;-49
2022/11/11 12:04:33;;;;;;;12.80;4.30;;;;;;;10.80;100.00;100179.69;5151385;27;20082;-48
2022/11/11 12:07:09;;;;;;;17.67;4.25;;;;;;;11.01;100.00;100165.84;5150920;27;20051;-50
2022/11/11 12:09:50;;;;;;;8.50;3.83;;;;;;;10.94;100.00;100195.81;5150967;27;20077;-50
2022/11/11 12:12:31;;;;;;;13.52;5.38;;;;;;;10.98;100.00;100177.50;5150966;27;20493;-51
2022/11/11 12:15:13;;;;;;;9.70;3.88;;;;;;;11.23;100.00;100173.63;5150903;27;20417;-51
2022/11/11 12:17:50;;;;;;;12.65;4.18;;;;;;;11.10;100.00;100141.06;5151035;27;20047;-48
2022/11/11 12:20:20;;;;;;;6.70;3.50;;;;;;;11.20;100.00;100148.81;5150839;27;20054;-48
2022/11/11 12:23:05;;;;;;;11.13;4.47;;;;;;;10.88;100.00;100159.56;5151061;27;20107;-50
2022/11/11 12:25:42;;;;;;;10.30;3.20;;;;;;;10.78;100.00;100185.50;5151052;27;20187;-48
2022/11/11 12:28:19;;;;;;;8.90;3.33;;;;;;;10.99;100.00;100215.56;5150906;27;20463;-49
2022/11/11 12:30:51;;;;;;;10.60;4.38;;;;;;;11.08;100.00;100168.81;5150756;27;20509;-48
2022/11/11 12:33:47;;;;;;;16.13;3.92;;;;;;;10.84;100.00;100166.88;5150774;27;20050;-50
2022/11/11 12:36:20;;;;;;;9.85;3.85;;;;;;;10.86;100.00;100167.31;5150874;27;20049;-50
2022/11/11 12:38:55;;;;;;;15.43;4.30;;;;;;;11.03;100.00;100177.31;5150749;27;20051;-52
2022/11/11 12:41:47;;;;;;;8.32;3.47;;;;;;;10.83;100.00;100204.50;5150923;27;20047;-50